createdAt,value
2017-08-03T00:00:07.440Z,26.29
2017-08-03T00:02:34.990Z,26.20
2017-08-03T00:05:02.516Z,26.17
2017-08-03T00:07:30.083Z,26.23
2017-08-03T00:09:57.605Z,26.20
2017-08-03T00:12:25.165Z,26.25
2017-08-03T00:14:52.730Z,26.32
2017-08-03T00:17:20.289Z,26.27
2017-08-03T00:19:47.854Z,26.33
2017-08-03T00:22:15.401Z,26.36
2017-08-03T00:24:42.949Z,26.37
2017-08-03T00:27:10.531Z,26.38
2017-08-03T00:29:38.058Z,26.40
2017-08-03T00:32:05.612Z,26.44
2017-08-03T00:34:33.141Z,26.48
2017-08-03T00:37:00.706Z,26.44
2017-08-03T00:39:28.228Z,26.44
2017-08-03T00:41:55.828Z,26.45
2017-08-03T00:44:23.381Z,26.43
2017-08-03T00:46:50.898Z,26.44
2017-08-03T00:49:18.453Z,26.39
2017-08-03T00:51:45.969Z,26.45
2017-08-03T00:54:13.532Z,26.46
2017-08-03T00:56:41.063Z,26.38
2017-08-03T00:59:08.632Z,26.37
2017-08-03T01:01:36.153Z,26.39
2017-08-03T01:04:03.743Z,26.41
2017-08-03T01:06:31.263Z,26.38
2017-08-03T01:08:58.922Z,26.31
2017-08-03T01:11:26.449Z,26.34
2017-08-03T01:13:54.023Z,26.40
2017-08-03T01:16:21.630Z,26.29
2017-08-03T01:18:49.229Z,26.25
2017-08-03T01:21:16.750Z,26.33
2017-08-03T01:23:44.307Z,26.34
2017-08-03T01:26:11.819Z,26.29
2017-08-03T01:28:39.409Z,26.22
2017-08-03T01:31:06.947Z,26.26
2017-08-03T01:33:34.543Z,26.31
2017-08-03T01:36:02.097Z,26.36
2017-08-03T01:38:29.622Z,26.32
2017-08-03T01:40:57.225Z,26.33
2017-08-03T01:43:24.752Z,26.38
2017-08-03T01:45:52.320Z,26.38
2017-08-03T01:48:19.845Z,26.42
2017-08-03T01:50:47.405Z,26.44
2017-08-03T01:53:14.933Z,26.49
2017-08-03T01:55:42.487Z,26.48
2017-08-03T01:58:10.003Z,26.47
2017-08-03T02:00:37.564Z,26.47
2017-08-03T02:03:05.091Z,26.37
2017-08-03T02:05:32.637Z,26.34
2017-08-03T02:08:00.158Z,26.35
2017-08-03T02:10:27.770Z,26.39
2017-08-03T02:12:55.293Z,26.41
2017-08-03T02:15:22.864Z,26.44
2017-08-03T02:17:50.448Z,26.39
2017-08-03T02:20:18.121Z,26.39
2017-08-03T02:22:45.649Z,26.39
2017-08-03T02:25:13.174Z,26.42
2017-08-03T02:27:40.790Z,26.40
2017-08-03T02:30:08.365Z,26.37
2017-08-03T02:32:35.931Z,26.34
2017-08-03T02:35:03.458Z,26.32
2017-08-03T02:37:31.030Z,26.33
2017-08-03T02:39:58.560Z,26.31
2017-08-03T02:42:26.114Z,26.30
2017-08-03T02:44:53.633Z,26.32
2017-08-03T02:47:21.191Z,26.31
2017-08-03T02:49:48.725Z,26.31
2017-08-03T02:52:16.288Z,26.31
2017-08-03T02:54:43.818Z,26.36
2017-08-03T02:57:11.405Z,26.42
2017-08-03T02:59:38.925Z,26.37
2017-08-03T03:02:06.497Z,26.36
2017-08-03T03:04:34.008Z,26.31
2017-08-03T03:07:01.562Z,26.33
2017-08-03T03:09:29.085Z,26.30
2017-08-03T03:11:56.647Z,26.30
2017-08-03T03:14:24.173Z,26.30
2017-08-03T03:16:51.692Z,26.30
2017-08-03T03:19:19.240Z,26.30
2017-08-03T03:21:46.764Z,26.28
2017-08-03T03:24:14.332Z,26.32
2017-08-03T03:26:41.890Z,26.35
2017-08-03T03:29:09.450Z,26.37
2017-08-03T03:31:36.982Z,26.36
2017-08-03T03:34:04.558Z,26.30
2017-08-03T03:36:32.086Z,26.33
2017-08-03T03:38:59.641Z,26.32
2017-08-03T03:41:27.165Z,26.32
2017-08-03T03:43:54.717Z,26.35
2017-08-03T03:46:22.246Z,26.32
2017-08-03T03:48:49.829Z,26.33
2017-08-03T03:51:17.358Z,26.36
2017-08-03T03:53:44.909Z,26.38
2017-08-03T03:56:12.430Z,26.33
2017-08-03T03:58:39.990Z,26.29
2017-08-03T04:01:07.510Z,26.27
2017-08-03T04:03:35.086Z,26.31
2017-08-03T04:06:02.614Z,26.38
2017-08-03T04:08:30.154Z,26.34
2017-08-03T04:10:57.717Z,26.38
2017-08-03T04:13:25.243Z,26.40
2017-08-03T04:15:52.805Z,26.39
2017-08-03T04:18:20.323Z,26.30
2017-08-03T04:20:47.877Z,26.30
2017-08-03T04:23:15.413Z,26.29
2017-08-03T04:25:43.020Z,26.31
2017-08-03T04:28:10.543Z,26.30
2017-08-03T04:30:38.094Z,26.32
2017-08-03T04:33:05.676Z,26.35
2017-08-03T04:35:33.226Z,26.41
2017-08-03T04:38:00.779Z,26.43
2017-08-03T04:40:28.332Z,26.42
2017-08-03T04:42:55.854Z,26.24
2017-08-03T04:45:23.409Z,26.09
2017-08-03T04:47:50.939Z,25.97
2017-08-03T04:50:18.566Z,25.94
2017-08-03T04:52:46.102Z,25.98
2017-08-03T04:55:13.661Z,26.20
2017-08-03T04:57:41.288Z,26.32
2017-08-03T05:00:08.813Z,26.39
2017-08-03T05:02:36.362Z,26.42
2017-08-03T05:05:03.893Z,26.45
2017-08-03T05:07:31.906Z,26.46
2017-08-03T05:09:59.571Z,26.46
2017-08-03T05:12:27.151Z,26.47
2017-08-03T05:14:54.697Z,26.49
2017-08-03T05:17:22.290Z,26.48
2017-08-03T05:19:49.811Z,26.48
2017-08-03T05:22:17.370Z,26.49
2017-08-03T05:24:44.899Z,26.49
2017-08-03T05:27:12.459Z,26.50
2017-08-03T05:29:39.987Z,26.50
2017-08-03T05:32:07.539Z,26.52
2017-08-03T05:34:35.065Z,26.51
2017-08-03T05:37:02.622Z,26.51
2017-08-03T05:39:30.150Z,26.50
2017-08-03T05:41:57.827Z,26.49
2017-08-03T05:44:25.346Z,26.51
2017-08-03T05:46:52.913Z,26.52
2017-08-03T05:49:20.451Z,26.51
2017-08-03T05:51:47.977Z,26.53
2017-08-03T05:54:15.521Z,26.52
2017-08-03T05:56:43.049Z,26.54
2017-08-03T05:59:10.771Z,26.51
2017-08-03T06:01:38.301Z,26.52
2017-08-03T06:04:05.853Z,26.52
2017-08-03T06:06:33.362Z,26.53
2017-08-03T06:09:01.012Z,26.54
2017-08-03T06:11:28.539Z,26.55
2017-08-03T06:13:56.096Z,26.55
2017-08-03T06:16:23.690Z,26.56
2017-08-03T06:18:51.237Z,26.55
2017-08-03T06:21:18.756Z,26.54
2017-08-03T06:23:46.301Z,26.58
2017-08-03T06:26:13.821Z,26.56
2017-08-03T06:28:41.372Z,26.56
2017-08-03T06:31:08.891Z,26.57
2017-08-03T06:33:36.445Z,26.56
2017-08-03T06:36:03.958Z,26.57
2017-08-03T06:38:31.527Z,26.56
2017-08-03T06:40:59.062Z,26.57
2017-08-03T06:43:26.576Z,26.56
2017-08-03T06:45:54.125Z,26.57
2017-08-03T06:48:21.648Z,26.55
2017-08-03T06:50:49.197Z,26.58
2017-08-03T06:53:16.712Z,26.57
2017-08-03T06:55:44.264Z,26.59
2017-08-03T06:58:11.786Z,26.57
2017-08-03T07:00:39.333Z,26.58
2017-08-03T07:03:06.850Z,26.59
2017-08-03T07:05:34.392Z,26.59
2017-08-03T07:08:01.931Z,26.56
2017-08-03T07:10:29.483Z,26.58
2017-08-03T07:12:57.006Z,26.58
2017-08-03T07:15:24.557Z,26.58
2017-08-03T07:17:52.175Z,26.59
2017-08-03T07:20:19.736Z,26.57
2017-08-03T07:22:47.254Z,26.58
2017-08-03T07:25:14.802Z,26.59
2017-08-03T07:27:42.323Z,26.59
2017-08-03T07:30:09.867Z,26.60
2017-08-03T07:32:37.533Z,26.59
2017-08-03T07:35:05.056Z,26.59
2017-08-03T07:37:32.605Z,26.59
2017-08-03T07:40:00.129Z,26.60
2017-08-03T07:42:27.677Z,26.60
2017-08-03T07:44:55.201Z,26.59
2017-08-03T07:47:22.754Z,26.59
2017-08-03T07:49:50.285Z,26.59
2017-08-03T07:52:17.838Z,26.61
2017-08-03T07:54:45.358Z,26.60
2017-08-03T07:57:12.914Z,26.60
2017-08-03T07:59:40.483Z,26.60
2017-08-03T08:02:08.034Z,26.60
2017-08-03T08:04:35.547Z,26.58
2017-08-03T08:07:03.164Z,26.59
2017-08-03T08:09:30.789Z,26.59
2017-08-03T08:11:58.333Z,26.59
2017-08-03T08:14:25.857Z,26.60
2017-08-03T08:16:53.409Z,26.61
2017-08-03T08:19:20.933Z,26.60
2017-08-03T08:21:48.484Z,26.59
2017-08-03T08:24:16.014Z,26.60
2017-08-03T08:26:43.582Z,26.60
2017-08-03T08:29:11.141Z,26.61
2017-08-03T08:31:38.667Z,26.59
2017-08-03T08:34:06.214Z,26.59
2017-08-03T08:36:33.778Z,26.60
2017-08-03T08:39:01.646Z,26.60
2017-08-03T08:41:29.513Z,26.61
2017-08-03T08:43:57.588Z,26.62
2017-08-03T08:46:25.902Z,26.62
2017-08-03T08:48:54.139Z,26.61
2017-08-03T08:51:21.770Z,26.60
2017-08-03T08:53:49.563Z,26.61
2017-08-03T08:56:17.117Z,26.59
2017-08-03T08:58:45.403Z,26.60
2017-08-03T09:01:13.138Z,26.60
2017-08-03T09:03:41.649Z,26.62
2017-08-03T09:06:09.942Z,26.62
2017-08-03T09:08:38.795Z,26.62
2017-08-03T09:11:06.530Z,26.64
2017-08-03T09:13:34.144Z,26.64
2017-08-03T09:16:03.834Z,26.65
2017-08-03T09:18:31.411Z,26.66
2017-08-03T09:20:58.970Z,26.64
2017-08-03T09:23:26.492Z,26.65
2017-08-03T09:25:54.051Z,26.65
2017-08-03T09:28:21.571Z,26.66
2017-08-03T09:30:49.210Z,26.63
2017-08-03T09:33:16.730Z,26.66
2017-08-03T09:35:44.747Z,26.67
2017-08-03T09:38:12.409Z,26.66
2017-08-03T09:40:40.493Z,26.66
2017-08-03T09:43:08.344Z,26.65
2017-08-03T09:45:36.546Z,26.67
2017-08-03T09:48:06.491Z,26.67
2017-08-03T09:50:34.199Z,26.66
2017-08-03T09:53:02.238Z,26.68
2017-08-03T09:55:30.812Z,26.69
2017-08-03T09:57:59.127Z,26.69
2017-08-03T10:00:26.763Z,26.70
2017-08-03T10:02:55.729Z,26.69
2017-08-03T10:05:23.357Z,26.69
2017-08-03T10:07:51.415Z,26.70
2017-08-03T10:10:19.179Z,26.70
2017-08-03T10:12:46.912Z,26.72
2017-08-03T10:15:14.573Z,26.71
2017-08-03T10:17:42.354Z,26.71
2017-08-03T10:20:09.950Z,26.73
2017-08-03T10:22:37.664Z,26.72
2017-08-03T10:25:05.189Z,26.73
2017-08-03T10:27:32.733Z,26.73
2017-08-03T10:30:00.303Z,26.73
2017-08-03T10:32:27.849Z,26.73
2017-08-03T10:34:55.365Z,26.74
2017-08-03T10:37:22.909Z,26.74
2017-08-03T10:39:50.429Z,26.75
2017-08-03T10:42:17.985Z,26.75
2017-08-03T10:44:45.502Z,26.76
2017-08-03T10:47:13.218Z,26.76
2017-08-03T10:49:40.730Z,26.76
2017-08-03T10:52:08.282Z,26.76
2017-08-03T10:54:35.844Z,26.76
2017-08-03T10:57:03.365Z,26.77
2017-08-03T10:59:30.921Z,26.77
2017-08-03T11:01:58.445Z,26.78
2017-08-03T11:04:25.989Z,26.77
2017-08-03T11:06:53.539Z,26.78
2017-08-03T11:09:21.098Z,26.79
2017-08-03T11:11:48.621Z,26.78
2017-08-03T11:14:16.179Z,26.79
2017-08-03T11:16:43.710Z,26.79
2017-08-03T11:19:11.257Z,26.79
2017-08-03T11:21:38.781Z,26.78
2017-08-03T11:24:06.360Z,26.80
2017-08-03T11:26:33.881Z,26.80
2017-08-03T11:29:01.430Z,26.81
2017-08-03T11:31:28.952Z,26.81
2017-08-03T11:33:56.501Z,26.81
2017-08-03T11:36:24.016Z,26.81
2017-08-03T11:38:51.569Z,26.80
2017-08-03T11:41:19.103Z,26.81
2017-08-03T11:43:46.673Z,26.83
2017-08-03T11:46:14.199Z,26.82
2017-08-03T11:48:41.714Z,26.82
2017-08-03T11:51:09.262Z,26.82
2017-08-03T11:53:36.782Z,26.82
2017-08-03T11:56:04.337Z,26.81
2017-08-03T11:58:31.857Z,26.82
2017-08-03T12:00:59.415Z,26.82
2017-08-03T12:03:26.999Z,26.82
2017-08-03T12:05:54.556Z,26.81
2017-08-03T12:08:22.302Z,26.81
2017-08-03T12:10:49.857Z,26.81
2017-08-03T12:13:17.370Z,26.81
2017-08-03T12:15:44.894Z,26.82
2017-08-03T12:18:12.456Z,26.81
2017-08-03T12:20:40.020Z,26.81
2017-08-03T12:23:07.566Z,26.82
2017-08-03T12:25:35.084Z,26.83
2017-08-03T12:28:02.640Z,26.84
2017-08-03T12:30:30.158Z,26.85
2017-08-03T12:32:57.711Z,26.85
2017-08-03T12:35:25.273Z,26.85
2017-08-03T12:37:52.840Z,26.85
2017-08-03T12:40:20.354Z,26.85
2017-08-03T12:42:47.911Z,26.86
2017-08-03T12:45:15.425Z,26.85
2017-08-03T12:47:42.970Z,26.85
2017-08-03T12:50:10.504Z,26.86
2017-08-03T12:52:38.062Z,26.86
2017-08-03T12:55:05.584Z,26.87
2017-08-03T12:57:33.155Z,26.85
2017-08-03T13:00:00.670Z,26.86
2017-08-03T13:02:28.190Z,26.87
2017-08-03T13:04:55.753Z,26.86
2017-08-03T13:07:24.770Z,26.85
2017-08-03T13:09:52.652Z,26.87
2017-08-03T13:12:20.723Z,26.85
2017-08-03T13:14:48.872Z,26.87
2017-08-03T13:17:17.738Z,26.87
2017-08-03T13:19:45.556Z,26.88
2017-08-03T13:22:13.136Z,26.88
2017-08-03T13:24:40.872Z,26.88
2017-08-03T13:27:08.641Z,26.90
2017-08-03T13:29:36.406Z,26.90
2017-08-03T13:32:04.172Z,26.89
2017-08-03T13:34:32.144Z,26.91
2017-08-03T13:36:59.727Z,26.91
2017-08-03T13:39:28.089Z,26.91
2017-08-03T13:41:56.755Z,26.91
2017-08-03T13:44:24.633Z,26.91
2017-08-03T13:46:52.311Z,26.93
2017-08-03T13:49:20.039Z,26.92
2017-08-03T13:51:47.588Z,26.93
2017-08-03T13:54:15.112Z,26.93
2017-08-03T13:56:42.668Z,26.93
2017-08-03T13:59:10.188Z,26.93
2017-08-03T14:01:37.729Z,26.93
2017-08-03T14:04:05.245Z,26.94
2017-08-03T14:06:32.803Z,26.94
2017-08-03T14:09:00.338Z,26.94
2017-08-03T14:11:27.885Z,26.95
2017-08-03T14:13:55.403Z,26.95
2017-08-03T14:16:22.950Z,26.96
2017-08-03T14:18:50.465Z,26.95
2017-08-03T14:21:18.012Z,26.97
2017-08-03T14:23:45.522Z,26.93
2017-08-03T14:26:13.135Z,26.95
2017-08-03T14:28:40.691Z,26.97
2017-08-03T14:31:08.210Z,26.97
2017-08-03T14:33:35.769Z,26.96
2017-08-03T14:36:03.287Z,26.98
2017-08-03T14:38:30.842Z,26.97
2017-08-03T14:40:58.351Z,26.96
2017-08-03T14:43:25.906Z,26.97
2017-08-03T14:45:53.431Z,26.97
2017-08-03T14:48:21.010Z,27.01
2017-08-03T14:50:48.531Z,26.98
2017-08-03T14:53:16.813Z,26.99
2017-08-03T14:55:45.069Z,26.99
2017-08-03T14:58:13.711Z,27.01
2017-08-03T15:00:41.647Z,27.00
2017-08-03T15:03:10.372Z,27.02
2017-08-03T15:05:38.087Z,27.00
2017-08-03T15:08:05.959Z,27.02
2017-08-03T15:10:33.787Z,27.02
2017-08-03T15:13:01.387Z,27.02
2017-08-03T15:15:29.099Z,27.03
2017-08-03T15:17:57.118Z,27.05
2017-08-03T15:20:24.676Z,27.05
2017-08-03T15:22:52.313Z,27.06
2017-08-03T15:25:19.989Z,27.07
2017-08-03T15:27:47.619Z,27.07
2017-08-03T15:30:16.205Z,27.09
2017-08-03T15:32:43.809Z,27.08
2017-08-03T15:35:11.352Z,27.08
2017-08-03T15:37:38.874Z,27.09
2017-08-03T15:40:06.430Z,27.09
2017-08-03T15:42:33.945Z,27.09
2017-08-03T15:45:01.465Z,27.08
2017-08-03T15:47:29.023Z,27.10
2017-08-03T15:49:56.536Z,27.10
2017-08-03T15:52:24.096Z,27.09
2017-08-03T15:54:51.613Z,27.12
2017-08-03T15:57:19.199Z,27.11
2017-08-03T15:59:46.761Z,27.11
2017-08-03T16:02:14.289Z,27.10
2017-08-03T16:04:41.838Z,27.11
2017-08-03T16:07:09.362Z,27.12
2017-08-03T16:09:36.880Z,27.11
2017-08-03T16:12:04.430Z,27.12
2017-08-03T16:14:31.953Z,27.12
2017-08-03T16:16:59.506Z,27.12
2017-08-03T16:19:27.025Z,27.12
2017-08-03T16:21:54.543Z,27.12
2017-08-03T16:24:22.103Z,27.12
2017-08-03T16:26:49.622Z,27.12
2017-08-03T16:29:17.168Z,27.13
2017-08-03T16:31:44.685Z,27.14
2017-08-03T16:34:12.246Z,27.15
2017-08-03T16:36:39.766Z,27.16
2017-08-03T16:39:07.307Z,27.15
2017-08-03T16:41:34.858Z,27.15
2017-08-03T16:44:02.373Z,27.16
2017-08-03T16:46:29.914Z,27.18
2017-08-03T16:48:57.434Z,27.18
2017-08-03T16:51:24.949Z,27.20
2017-08-03T16:53:52.495Z,27.21
2017-08-03T16:56:20.011Z,27.25
2017-08-03T16:58:47.747Z,27.28
2017-08-03T17:01:15.500Z,27.33
2017-08-03T17:03:43.554Z,27.39
2017-08-03T17:06:11.773Z,27.38
2017-08-03T17:08:39.712Z,27.38
2017-08-03T17:11:07.887Z,27.40
2017-08-03T17:13:35.652Z,27.44
2017-08-03T17:16:03.216Z,27.48
2017-08-03T17:18:31.183Z,27.51
2017-08-03T17:20:58.982Z,27.54
2017-08-03T17:23:26.712Z,27.49
2017-08-03T17:25:54.820Z,27.47
2017-08-03T17:28:22.933Z,27.50
2017-08-03T17:30:50.580Z,27.53
2017-08-03T17:33:18.862Z,27.53
2017-08-03T17:35:46.638Z,27.52
2017-08-03T17:38:14.505Z,27.55
2017-08-03T17:40:42.474Z,27.55
2017-08-03T17:43:10.445Z,27.54
2017-08-03T17:45:38.209Z,27.56
2017-08-03T17:48:06.082Z,27.57
2017-08-03T17:50:34.269Z,27.59
2017-08-03T17:53:01.970Z,27.60
2017-08-03T17:55:30.277Z,27.66
2017-08-03T17:57:58.407Z,27.74
2017-08-03T18:00:26.910Z,27.78
2017-08-03T18:02:54.935Z,27.78
2017-08-03T18:05:22.527Z,27.77
2017-08-03T18:07:50.100Z,27.78
2017-08-03T18:10:17.663Z,27.81
2017-08-03T18:12:46.174Z,27.84
2017-08-03T18:15:16.179Z,27.82
2017-08-03T18:17:43.984Z,27.84
2017-08-03T18:20:11.747Z,27.87
2017-08-03T18:22:39.623Z,27.85
2017-08-03T18:25:07.634Z,27.87
2017-08-03T18:27:35.596Z,27.87
2017-08-03T18:30:04.568Z,27.88
2017-08-03T18:32:32.661Z,27.88
2017-08-03T18:35:01.404Z,27.88
2017-08-03T18:37:29.057Z,27.86
2017-08-03T18:39:57.211Z,27.84
2017-08-03T18:42:25.972Z,27.83
2017-08-03T18:44:53.859Z,27.82
2017-08-03T18:47:22.000Z,27.80
2017-08-03T18:49:49.536Z,27.81
2017-08-03T18:52:17.093Z,27.79
2017-08-03T18:54:44.617Z,27.79
2017-08-03T18:57:12.175Z,27.79
2017-08-03T18:59:39.694Z,27.77
2017-08-03T19:02:07.267Z,27.75
2017-08-03T19:04:34.823Z,27.74
2017-08-03T19:07:02.473Z,27.73
2017-08-03T19:09:30.141Z,27.71
2017-08-03T19:11:57.658Z,27.71
2017-08-03T19:14:25.208Z,27.73
2017-08-03T19:16:52.827Z,27.77
2017-08-03T19:19:20.385Z,28.38
2017-08-03T19:21:47.942Z,29.15
2017-08-03T19:24:15.493Z,28.55
2017-08-03T19:26:43.016Z,28.23
2017-08-03T19:29:10.689Z,28.06
2017-08-03T19:31:38.286Z,27.99
2017-08-03T19:34:05.814Z,27.94
2017-08-03T19:36:33.374Z,27.93
2017-08-03T19:39:01.047Z,27.91
2017-08-03T19:41:28.597Z,27.93
2017-08-03T19:43:56.113Z,27.92
2017-08-03T19:46:23.846Z,27.90
2017-08-03T19:48:51.410Z,27.86
2017-08-03T19:51:18.973Z,27.84
2017-08-03T19:53:46.499Z,27.84
2017-08-03T19:56:14.060Z,27.76
2017-08-03T19:58:41.819Z,27.80
2017-08-03T20:01:09.372Z,27.77
2017-08-03T20:03:36.933Z,27.82
2017-08-03T20:06:04.716Z,27.84
2017-08-03T20:08:39.177Z,27.82
2017-08-03T20:11:15.621Z,27.81
2017-08-03T20:13:43.140Z,27.80
2017-08-03T20:16:10.677Z,27.77
2017-08-03T20:18:38.240Z,27.76
2017-08-03T20:21:05.769Z,27.80
2017-08-03T20:23:33.323Z,27.75
2017-08-03T20:26:00.849Z,27.73
2017-08-03T20:28:28.411Z,27.68
2017-08-03T20:30:55.934Z,27.69
2017-08-03T20:33:23.486Z,27.72
2017-08-03T20:35:51.055Z,27.71
2017-08-03T20:38:18.651Z,27.75
2017-08-03T20:40:46.212Z,27.77
2017-08-03T20:43:13.788Z,27.74
2017-08-03T20:45:41.380Z,27.65
2017-08-03T20:48:08.946Z,27.54
2017-08-03T20:50:36.475Z,27.44
2017-08-03T20:53:04.027Z,27.41
2017-08-03T20:55:31.546Z,27.41
2017-08-03T20:57:59.097Z,27.39
2017-08-03T21:00:26.613Z,27.38
2017-08-03T21:02:54.129Z,27.34
2017-08-03T21:05:21.689Z,27.27
2017-08-03T21:07:49.201Z,27.22
2017-08-03T21:10:16.741Z,27.22
2017-08-03T21:12:44.248Z,27.14
2017-08-03T21:15:11.794Z,27.17
2017-08-03T21:17:39.318Z,27.16
2017-08-03T21:20:07.796Z,27.15
2017-08-03T21:22:35.450Z,27.09
2017-08-03T21:25:03.052Z,27.06
2017-08-03T21:27:30.574Z,26.94
2017-08-03T21:29:58.126Z,26.94
2017-08-03T21:32:25.648Z,26.91
2017-08-03T21:34:53.207Z,26.87
2017-08-03T21:37:20.732Z,26.82
2017-08-03T21:39:48.295Z,26.85
2017-08-03T21:42:15.815Z,26.78
2017-08-03T21:44:43.361Z,26.77
2017-08-03T21:47:10.881Z,26.74
2017-08-03T21:49:38.445Z,26.72
2017-08-03T21:52:05.957Z,26.68
2017-08-03T21:54:33.473Z,26.73
2017-08-03T21:57:01.025Z,26.76
2017-08-03T21:59:28.547Z,26.77
2017-08-03T22:01:56.096Z,26.78
2017-08-03T22:04:23.619Z,26.75
2017-08-03T22:06:51.177Z,26.77
2017-08-03T22:09:18.695Z,26.76
2017-08-03T22:11:46.242Z,26.72
2017-08-03T22:14:13.758Z,26.72
2017-08-03T22:16:41.306Z,26.76
2017-08-03T22:19:08.821Z,26.80
2017-08-03T22:21:36.370Z,26.79
2017-08-03T22:24:03.898Z,26.79
2017-08-03T22:26:31.464Z,26.78
2017-08-03T22:28:58.979Z,26.81
2017-08-03T22:31:26.538Z,26.80
2017-08-03T22:33:54.056Z,26.79
2017-08-03T22:36:21.615Z,26.74
2017-08-03T22:38:49.139Z,26.75
2017-08-03T22:41:16.658Z,26.81
2017-08-03T22:43:44.217Z,26.83
2017-08-03T22:46:11.737Z,26.80
2017-08-03T22:48:39.287Z,26.79
2017-08-03T22:51:06.813Z,26.77
2017-08-03T22:53:34.351Z,26.80
2017-08-03T22:56:01.877Z,26.76
2017-08-03T22:58:29.427Z,26.74
2017-08-03T23:00:56.946Z,26.74
2017-08-03T23:03:24.497Z,26.71
2017-08-03T23:05:52.025Z,26.74
2017-08-03T23:08:19.570Z,26.74
2017-08-03T23:10:47.098Z,26.73
2017-08-03T23:13:14.650Z,26.74
2017-08-03T23:15:42.165Z,26.74
2017-08-03T23:18:09.709Z,26.75
2017-08-03T23:20:37.223Z,26.74
2017-08-03T23:23:04.796Z,26.76
2017-08-03T23:25:32.314Z,26.75
2017-08-03T23:27:59.865Z,26.75
2017-08-03T23:30:27.386Z,26.73
2017-08-03T23:32:54.905Z,26.66
2017-08-03T23:35:22.470Z,26.70
2017-08-03T23:37:49.989Z,26.70
2017-08-03T23:40:17.535Z,26.69
2017-08-03T23:42:45.050Z,26.64
2017-08-03T23:45:12.599Z,26.65
2017-08-03T23:47:40.134Z,26.60
2017-08-03T23:50:07.686Z,26.61
2017-08-03T23:52:35.210Z,26.61
2017-08-03T23:55:02.768Z,26.59
2017-08-03T23:57:30.291Z,26.61
2017-08-03T23:59:57.845Z,26.63
